createdAt,value
2023-12-23T00:00:30.821Z,99534.06
2023-12-23T00:03:18.854Z,99525.69
2023-12-23T00:06:06.993Z,99518.44
2023-12-23T00:08:56.162Z,99510.06
2023-12-23T00:11:44.097Z,99503.28
2023-12-23T00:14:32.009Z,99482.19
2023-12-23T00:17:20.031Z,99493.78
2023-12-23T00:20:08.903Z,99485.56
2023-12-23T00:22:57.312Z,99469.41
2023-12-23T00:25:46.649Z,99462.25
2023-12-23T00:28:34.531Z,99448.28
2023-12-23T00:31:22.357Z,99435.97
2023-12-23T00:34:10.182Z,99440.03
2023-12-23T00:36:58.017Z,99451.75
2023-12-23T00:39:45.963Z,99440.22
2023-12-23T00:42:35.206Z,99435.63
2023-12-23T00:45:22.994Z,99433.69
2023-12-23T00:48:12.814Z,99439.66
2023-12-23T00:51:00.743Z,99442.44
2023-12-23T00:53:49.304Z,99438.34
2023-12-23T00:56:37.222Z,99434.59
2023-12-23T00:59:26.370Z,99431.56
2023-12-23T01:02:15.936Z,99420.16
2023-12-23T01:05:03.855Z,99409.16
2023-12-23T01:07:51.982Z,99392.75
2023-12-23T01:10:39.964Z,99366.84
2023-12-23T01:13:27.803Z,99335.25
2023-12-23T01:16:17.102Z,99296.75
2023-12-23T01:19:05.221Z,99268.59
2023-12-23T01:21:53.096Z,99234.81
2023-12-23T01:24:40.975Z,99209.84
2023-12-23T01:27:28.810Z,99194.28
2023-12-23T01:30:16.845Z,99174.31
2023-12-23T01:33:07.156Z,99145.59
2023-12-23T01:35:55.016Z,99119.03
2023-12-23T01:38:43.008Z,99089.72
2023-12-23T01:41:30.849Z,99086.13
2023-12-23T01:44:18.807Z,99075.75
2023-12-23T01:47:07.507Z,99080.97
2023-12-23T01:49:57.371Z,99081.56
2023-12-23T01:52:45.725Z,99124.88
2023-12-23T01:55:34.041Z,99122.84
2023-12-23T01:58:22.089Z,99118.88
2023-12-23T02:01:10.041Z,99116.88
2023-12-23T02:03:58.008Z,99091.31
2023-12-23T02:06:47.366Z,99080.94
2023-12-23T02:09:35.309Z,99050.00
2023-12-23T02:12:27.428Z,99039.81
2023-12-23T02:15:16.890Z,99011.28
2023-12-23T02:18:05.426Z,98988.91
2023-12-23T02:20:54.776Z,98964.97
2023-12-23T02:23:42.646Z,98944.41
2023-12-23T02:26:32.933Z,98934.59
2023-12-23T02:29:22.767Z,98638.78
2023-12-23T02:32:11.432Z,98643.38
2023-12-23T02:34:59.749Z,98641.75
2023-12-23T02:37:49.085Z,98618.97
2023-12-23T02:40:37.095Z,98606.56
2023-12-23T02:43:24.985Z,98589.72
2023-12-23T02:46:12.837Z,98568.50
2023-12-23T02:49:01.833Z,98569.63
2023-12-23T02:51:49.715Z,98556.50
2023-12-23T02:54:39.153Z,98551.69
2023-12-23T02:57:26.944Z,98546.78
2023-12-23T03:00:15.131Z,98540.94
2023-12-23T03:03:03.023Z,98531.28
2023-12-23T03:05:50.930Z,98528.88
2023-12-23T03:08:38.782Z,98512.88
2023-12-23T03:11:27.997Z,98516.38
2023-12-23T03:14:15.839Z,98497.56
2023-12-23T03:17:04.512Z,98506.28
2023-12-23T03:19:54.537Z,98478.19
2023-12-23T03:22:42.390Z,98473.69
2023-12-23T03:25:30.264Z,98472.25
2023-12-23T03:28:21.033Z,98468.84
2023-12-23T03:31:08.922Z,98458.09
2023-12-23T03:33:56.817Z,98457.25
2023-12-23T03:36:44.739Z,98456.81
2023-12-23T03:39:32.558Z,98450.03
2023-12-23T03:42:20.421Z,98433.09
2023-12-23T03:45:10.162Z,98424.28
2023-12-23T03:47:58.184Z,98435.47
2023-12-23T03:50:46.027Z,98418.66
2023-12-23T03:53:33.865Z,98445.34
2023-12-23T03:56:21.944Z,98437.66
2023-12-23T03:59:09.804Z,98457.47
2023-12-23T04:01:59.094Z,98493.63
2023-12-23T04:04:47.067Z,98510.72
2023-12-23T04:07:34.952Z,98583.38
2023-12-23T04:10:22.852Z,98616.81
2023-12-23T04:13:10.694Z,98616.63
2023-12-23T04:15:58.631Z,98633.59
2023-12-23T04:18:47.873Z,98644.56
2023-12-23T04:21:35.720Z,98677.06
2023-12-23T04:24:23.601Z,98692.47
2023-12-23T04:27:11.462Z,98735.25
2023-12-23T04:29:59.352Z,98764.09
2023-12-23T04:32:48.449Z,98782.28
2023-12-23T04:35:38.257Z,98780.34
2023-12-23T04:38:26.107Z,98790.59
2023-12-23T04:41:14.101Z,98823.38
2023-12-23T04:44:04.082Z,98864.63
2023-12-23T04:46:52.815Z,98898.84
2023-12-23T04:49:40.787Z,98954.09
2023-12-23T04:52:30.785Z,98984.13
2023-12-23T04:55:18.695Z,99023.75
2023-12-23T04:58:06.601Z,99073.94
2023-12-23T05:00:54.440Z,99129.19
2023-12-23T05:03:42.760Z,99154.66
2023-12-23T05:06:30.635Z,99194.66
2023-12-23T05:09:19.867Z,99206.28
2023-12-23T05:12:07.916Z,99230.31
2023-12-23T05:14:55.777Z,99233.53
2023-12-23T05:17:43.878Z,99227.53
2023-12-23T05:20:31.942Z,99217.50
2023-12-23T05:23:19.835Z,99189.09
2023-12-23T05:26:10.133Z,99194.25
2023-12-23T05:28:58.006Z,99196.69
2023-12-23T05:31:45.949Z,99160.88
2023-12-23T05:34:33.813Z,99144.66
2023-12-23T05:37:21.691Z,99117.84
2023-12-23T05:40:10.425Z,99116.84
2023-12-23T05:42:59.632Z,99088.44
2023-12-23T05:45:48.006Z,99071.06
2023-12-23T05:48:36.028Z,99041.25
2023-12-23T05:51:23.927Z,99018.25
2023-12-23T05:54:11.771Z,98998.44
2023-12-23T05:56:59.589Z,98977.41
2023-12-23T05:59:48.784Z,98968.41
2023-12-23T06:02:36.684Z,98954.63
2023-12-23T06:05:24.870Z,98953.22
2023-12-23T06:08:12.860Z,98941.59
2023-12-23T06:11:02.411Z,98922.59
2023-12-23T06:13:51.674Z,98933.38
2023-12-23T06:16:41.775Z,98912.50
2023-12-23T06:19:29.663Z,98914.34
2023-12-23T06:22:17.616Z,98906.88
2023-12-23T06:25:05.953Z,98920.28
2023-12-23T06:27:53.780Z,98926.06
2023-12-23T06:30:41.677Z,98921.88
2023-12-23T06:33:30.956Z,98926.50
2023-12-23T06:36:18.902Z,98921.28
2023-12-23T06:39:06.736Z,98923.31
2023-12-23T06:41:54.593Z,98912.47
2023-12-23T06:44:42.914Z,98899.41
2023-12-23T06:47:30.887Z,98919.19
2023-12-23T06:50:20.180Z,98927.81
2023-12-23T06:53:10.046Z,98933.59
2023-12-23T06:55:58.062Z,98957.19
2023-12-23T06:58:46.021Z,98979.22
2023-12-23T07:01:37.539Z,99013.75
2023-12-23T07:04:25.385Z,99058.03
2023-12-23T07:07:14.558Z,99107.06
2023-12-23T07:10:05.370Z,99168.50
2023-12-23T07:12:55.761Z,99228.56
2023-12-23T07:15:44.044Z,99292.28
2023-12-23T07:18:32.011Z,99332.94
2023-12-23T07:21:19.879Z,99376.78
2023-12-23T07:24:09.301Z,99397.44
2023-12-23T07:26:57.188Z,99416.44
2023-12-23T07:29:48.113Z,99432.06
2023-12-23T07:32:36.436Z,99463.50
2023-12-23T07:35:24.557Z,99497.34
2023-12-23T07:38:12.493Z,99531.22
2023-12-23T07:41:01.853Z,99534.25
2023-12-23T07:43:50.979Z,99554.25
2023-12-23T07:46:38.824Z,99596.72
2023-12-23T07:49:26.723Z,99630.78
2023-12-23T07:52:14.594Z,99632.38
2023-12-23T07:55:02.438Z,99648.44
2023-12-23T07:57:51.652Z,99691.72
2023-12-23T08:00:39.522Z,99737.78
2023-12-23T08:03:27.464Z,99789.94
2023-12-23T08:06:16.879Z,99833.59
2023-12-23T08:09:05.151Z,99848.25
2023-12-23T08:11:53.025Z,99882.06
2023-12-23T08:14:42.269Z,99896.69
2023-12-23T08:17:30.217Z,99909.13
2023-12-23T08:20:18.120Z,99905.47
2023-12-23T08:23:06.115Z,99903.88
2023-12-23T08:25:53.986Z,99907.47
2023-12-23T08:28:43.364Z,99903.06
2023-12-23T08:31:34.410Z,99902.50
2023-12-23T08:34:23.000Z,99916.53
2023-12-23T08:37:10.906Z,99912.75
2023-12-23T08:39:58.747Z,99911.75
2023-12-23T08:42:46.663Z,99930.81
2023-12-23T08:45:34.492Z,99942.78
2023-12-23T08:48:23.890Z,99955.88
2023-12-23T08:51:11.834Z,99969.88
2023-12-23T08:53:59.710Z,99982.28
2023-12-23T08:56:47.635Z,99979.31
2023-12-23T08:59:35.501Z,99972.09
2023-12-23T09:02:26.035Z,99976.47
2023-12-23T09:05:16.937Z,99947.41
2023-12-23T09:08:05.541Z,99947.59
2023-12-23T09:10:53.713Z,99933.75
2023-12-23T09:13:41.625Z,99936.19
2023-12-23T09:16:29.510Z,99958.41
2023-12-23T09:19:17.461Z,99957.00
2023-12-23T09:22:06.745Z,99951.03
2023-12-23T09:24:54.609Z,99970.13
2023-12-23T09:27:42.429Z,99988.31
2023-12-23T09:30:30.322Z,99990.72
2023-12-23T09:33:18.607Z,100005.19
2023-12-23T09:36:06.988Z,99994.75
2023-12-23T09:38:56.259Z,100019.00
2023-12-23T09:41:44.128Z,100030.25
2023-12-23T09:44:32.132Z,100052.53
2023-12-23T09:47:20.099Z,100066.94
2023-12-23T09:50:08.872Z,100076.59
2023-12-23T09:52:57.116Z,100089.03
2023-12-23T09:55:46.684Z,100097.69
2023-12-23T09:58:36.054Z,100123.34
2023-12-23T10:01:24.039Z,100115.50
2023-12-23T10:04:11.919Z,100123.69
2023-12-23T10:06:59.784Z,100134.56
2023-12-23T10:09:50.017Z,100143.78
2023-12-23T10:12:39.228Z,100148.59
2023-12-23T10:15:27.111Z,100162.09
2023-12-23T10:18:15.324Z,100172.53
2023-12-23T10:21:03.175Z,100189.22
2023-12-23T10:23:50.994Z,100208.88
2023-12-23T10:26:39.978Z,100233.94
2023-12-23T10:29:32.940Z,100247.75
2023-12-23T10:32:25.150Z,100257.41
2023-12-23T10:35:17.600Z,100272.81
2023-12-23T10:38:08.420Z,100290.50
2023-12-23T10:40:57.797Z,100318.38
2023-12-23T10:43:46.490Z,100332.28
2023-12-23T10:46:36.151Z,100343.88
2023-12-23T10:49:25.532Z,100359.00
2023-12-23T10:52:14.306Z,100378.59
2023-12-23T10:55:03.421Z,100387.66
2023-12-23T10:57:53.611Z,100399.16
2023-12-23T11:00:42.249Z,100401.13
2023-12-23T11:03:32.124Z,100441.94
2023-12-23T11:06:20.993Z,100460.19
2023-12-23T11:09:10.396Z,100464.97
2023-12-23T11:11:58.313Z,100458.75
2023-12-23T11:14:47.531Z,100469.25
2023-12-23T11:17:37.045Z,100486.53
2023-12-23T11:20:43.404Z,100517.56
2023-12-23T11:23:33.388Z,100532.59
2023-12-23T11:26:40.841Z,100550.22
2023-12-23T11:29:28.958Z,100624.22
2023-12-23T11:32:16.985Z,100629.16
2023-12-23T11:35:05.601Z,100622.25
2023-12-23T11:37:54.846Z,100627.28
2023-12-23T11:40:44.541Z,100637.09
2023-12-23T11:43:32.458Z,100664.44
2023-12-23T11:46:20.941Z,100688.84
2023-12-23T11:49:09.650Z,100697.31
2023-12-23T11:51:57.494Z,100692.13
2023-12-23T11:54:45.794Z,100700.19
2023-12-23T11:57:35.502Z,100707.13
2023-12-23T12:00:23.381Z,100717.56
2023-12-23T12:03:12.042Z,100727.19
2023-12-23T12:06:00.887Z,100727.81
2023-12-23T12:08:49.089Z,100727.47
2023-12-23T12:11:38.652Z,100716.03
2023-12-23T12:14:28.304Z,100711.59
2023-12-23T12:17:16.240Z,100728.28
2023-12-23T12:20:04.538Z,100732.69
2023-12-23T12:22:52.795Z,100729.25
2023-12-23T12:25:40.840Z,100751.28
2023-12-23T12:28:29.923Z,100772.66
2023-12-23T12:31:19.182Z,100756.84
2023-12-23T12:34:07.673Z,100751.31
2023-12-23T12:36:55.772Z,100752.78
2023-12-23T12:39:44.641Z,100755.81
2023-12-23T12:42:32.442Z,100754.53
2023-12-23T12:45:20.417Z,100739.16
2023-12-23T12:48:10.905Z,100740.72
2023-12-23T12:50:59.113Z,100739.69
2023-12-23T12:53:48.424Z,100760.56
2023-12-23T12:56:36.399Z,100758.25
2023-12-23T12:59:24.312Z,100758.41
2023-12-23T13:02:12.152Z,100765.09
2023-12-23T13:05:01.412Z,100775.16
2023-12-23T13:07:51.137Z,100781.19
2023-12-23T13:10:39.030Z,100763.38
2023-12-23T13:13:26.908Z,100769.84
2023-12-23T13:16:15.359Z,100765.72
2023-12-23T13:19:03.303Z,100756.91
2023-12-23T13:21:52.603Z,100746.75
2023-12-23T13:24:40.483Z,100741.91
2023-12-23T13:27:28.439Z,100760.59
2023-12-23T13:30:16.450Z,100753.19
2023-12-23T13:33:04.481Z,100773.38
2023-12-23T13:35:52.349Z,100769.22
2023-12-23T13:38:43.998Z,100765.25
2023-12-23T13:41:32.254Z,100751.06
2023-12-23T13:44:20.260Z,100766.72
2023-12-23T13:47:08.182Z,100753.84
2023-12-23T13:49:56.115Z,100753.75
2023-12-23T13:52:43.969Z,100771.63
2023-12-23T13:55:33.242Z,100760.13
2023-12-23T13:58:21.093Z,100753.19
2023-12-23T14:01:09.001Z,100749.94
2023-12-23T14:03:56.827Z,100748.69
2023-12-23T14:06:44.656Z,100728.81
2023-12-23T14:09:34.139Z,100737.28
2023-12-23T14:12:23.336Z,100743.31
2023-12-23T14:15:11.359Z,100730.63
2023-12-23T14:17:59.264Z,100717.41
2023-12-23T14:20:47.125Z,100713.00
2023-12-23T14:23:35.142Z,100723.31
2023-12-23T14:26:23.013Z,100708.66
2023-12-23T14:29:12.322Z,100691.03
2023-12-23T14:32:00.663Z,100685.19
2023-12-23T14:34:48.561Z,100671.50
2023-12-23T14:37:44.824Z,100666.03
2023-12-23T14:40:36.486Z,100653.44
2023-12-23T14:43:24.390Z,100649.09
2023-12-23T14:46:15.565Z,100650.38
2023-12-23T14:49:03.458Z,100644.34
2023-12-23T14:51:51.372Z,100644.06
2023-12-23T14:54:39.254Z,100631.16
2023-12-23T14:57:27.079Z,100616.66
2023-12-23T15:00:16.781Z,100613.41
2023-12-23T15:03:06.196Z,100610.53
2023-12-23T15:05:54.097Z,100609.53
2023-12-23T15:08:41.996Z,100598.69
2023-12-23T15:11:29.889Z,100583.63
2023-12-23T15:14:17.786Z,100573.59
2023-12-23T15:17:05.637Z,100565.38
2023-12-23T15:19:54.881Z,100574.41
2023-12-23T15:22:42.699Z,100564.50
2023-12-23T15:25:30.553Z,100561.53
2023-12-23T15:28:18.400Z,100553.56
2023-12-23T15:31:06.313Z,100549.31
2023-12-23T15:33:54.372Z,100561.53
2023-12-23T15:36:43.585Z,100571.88
2023-12-23T15:39:31.645Z,100580.06
2023-12-23T15:42:19.486Z,100579.44
2023-12-23T15:45:07.964Z,100576.84
2023-12-23T15:47:55.917Z,100581.59
2023-12-23T15:50:43.790Z,100576.72
2023-12-23T15:53:33.268Z,100571.16
2023-12-23T15:56:21.204Z,100586.63
2023-12-23T15:59:09.145Z,100582.84
2023-12-23T16:01:57.000Z,100587.06
2023-12-23T16:04:44.883Z,100601.72
2023-12-23T16:07:32.810Z,100603.81
2023-12-23T16:10:22.259Z,100616.19
2023-12-23T16:13:10.071Z,100611.63
2023-12-23T16:15:57.956Z,100606.94
2023-12-23T16:18:45.967Z,100618.53
2023-12-23T16:21:34.003Z,100615.56
2023-12-23T16:24:21.842Z,100624.09
2023-12-23T16:27:11.383Z,100614.16
2023-12-23T16:29:59.197Z,100587.00
2023-12-23T16:32:47.148Z,100609.19
2023-12-23T16:35:35.009Z,100612.97
2023-12-23T16:38:22.806Z,100601.88
2023-12-23T16:41:11.636Z,100609.00
2023-12-23T16:44:00.953Z,100607.22
2023-12-23T16:46:48.848Z,100613.25
2023-12-23T16:49:41.531Z,100614.94
2023-12-23T16:52:30.233Z,100624.13
2023-12-23T16:55:18.050Z,100641.03
2023-12-23T16:58:06.086Z,100646.78
2023-12-23T17:00:55.383Z,100648.84
2023-12-23T17:03:43.665Z,100653.00
2023-12-23T17:06:31.580Z,100648.75
2023-12-23T17:09:19.438Z,100635.38
2023-12-23T17:12:07.700Z,100648.03
2023-12-23T17:14:57.694Z,100657.03
2023-12-23T17:17:47.153Z,100668.56
2023-12-23T17:20:35.234Z,100672.13
2023-12-23T17:23:26.610Z,100671.25
2023-12-23T17:26:14.563Z,100667.28
2023-12-23T17:29:02.460Z,100666.03
2023-12-23T17:31:50.492Z,100680.13
2023-12-23T17:34:39.728Z,100670.50
2023-12-23T17:37:27.585Z,100680.94
2023-12-23T17:40:15.623Z,100688.13
2023-12-23T17:43:03.442Z,100690.41
2023-12-23T17:45:51.265Z,100707.31
2023-12-23T17:48:39.158Z,100697.06
2023-12-23T17:51:28.382Z,100686.28
2023-12-23T17:54:16.280Z,100701.00
2023-12-23T17:57:04.277Z,100697.06
2023-12-23T17:59:52.144Z,100702.09
2023-12-23T18:02:40.149Z,100710.81
2023-12-23T18:05:28.293Z,100718.81
2023-12-23T18:08:17.590Z,100724.25
2023-12-23T18:11:05.704Z,100714.97
2023-12-23T18:13:54.118Z,100719.19
2023-12-23T18:16:41.964Z,100711.72
2023-12-23T18:19:29.765Z,100708.78
2023-12-23T18:22:17.632Z,100715.41
2023-12-23T18:25:07.596Z,100740.50
2023-12-23T18:27:56.673Z,100733.31
2023-12-23T18:30:45.462Z,100736.47
2023-12-23T18:33:33.523Z,100728.19
2023-12-23T18:36:21.605Z,100708.19
2023-12-23T18:39:09.436Z,100688.78
2023-12-23T18:41:58.689Z,100675.72
2023-12-23T18:44:46.540Z,100670.09
2023-12-23T18:47:34.534Z,100688.25
2023-12-23T18:50:22.420Z,100703.25
2023-12-23T18:53:10.275Z,100715.78
2023-12-23T18:55:58.216Z,100735.50
2023-12-23T18:58:47.465Z,100750.94
2023-12-23T19:01:35.260Z,100762.66
2023-12-23T19:04:23.388Z,100783.84
2023-12-23T19:07:11.242Z,100800.16
2023-12-23T19:09:59.090Z,100801.94
2023-12-23T19:12:46.941Z,100795.91
2023-12-23T19:15:36.169Z,100801.94
2023-12-23T19:18:24.147Z,100797.38
2023-12-23T19:21:12.044Z,100816.44
2023-12-23T19:23:59.920Z,100804.72
2023-12-23T19:26:47.864Z,100805.91
2023-12-23T19:29:38.154Z,100809.13
2023-12-23T19:32:27.444Z,100807.22
2023-12-23T19:35:16.885Z,100797.06
2023-12-23T19:38:04.986Z,100798.34
2023-12-23T19:40:53.016Z,100822.63
2023-12-23T19:43:40.987Z,100805.09
2023-12-23T19:46:31.974Z,100802.50
2023-12-23T19:49:22.492Z,100800.16
2023-12-23T19:52:10.479Z,100799.16
2023-12-23T19:54:58.349Z,100786.19
2023-12-23T19:57:46.136Z,100775.41
2023-12-23T20:00:33.956Z,100766.31
2023-12-23T20:03:21.844Z,100762.34
2023-12-23T20:06:11.870Z,100755.25
2023-12-23T20:09:02.723Z,100763.88
2023-12-23T20:11:50.567Z,100746.13
2023-12-23T20:14:39.944Z,100701.91
2023-12-23T20:17:27.887Z,100669.97
2023-12-23T20:20:15.928Z,100651.72
2023-12-23T20:23:05.384Z,100619.78
2023-12-23T20:25:53.316Z,100641.63
2023-12-23T20:28:41.570Z,100646.50
2023-12-23T20:31:29.448Z,100675.47
2023-12-23T20:34:17.502Z,100692.53
2023-12-23T20:37:08.449Z,100712.06
2023-12-23T20:39:57.621Z,100710.63
2023-12-23T20:42:45.541Z,100740.13
2023-12-23T20:45:33.415Z,100763.38
2023-12-23T20:48:21.520Z,100772.88
2023-12-23T20:51:09.963Z,100767.31
2023-12-23T20:53:57.815Z,100764.41
2023-12-23T20:56:47.024Z,100759.19
2023-12-23T20:59:34.847Z,100744.81
2023-12-23T21:02:22.754Z,100736.09
2023-12-23T21:05:11.653Z,100730.22
2023-12-23T21:07:59.911Z,100737.97
2023-12-23T21:10:47.816Z,100738.06
2023-12-23T21:13:37.005Z,100743.44
2023-12-23T21:16:24.957Z,100718.19
2023-12-23T21:19:12.872Z,100707.28
2023-12-23T21:22:00.772Z,100705.78
2023-12-23T21:24:48.769Z,100702.41
2023-12-23T21:27:36.645Z,100676.50
2023-12-23T21:30:26.086Z,100675.19
2023-12-23T21:33:14.121Z,100653.03
2023-12-23T21:36:02.012Z,100642.34
2023-12-23T21:38:49.865Z,100629.66
2023-12-23T21:41:37.733Z,100608.00
2023-12-23T21:44:27.044Z,100596.94
2023-12-23T21:47:16.396Z,100597.56
2023-12-23T21:50:04.487Z,100584.88
2023-12-23T21:52:53.494Z,100601.34
2023-12-23T21:55:42.004Z,100582.66
2023-12-23T21:58:29.881Z,100579.69
2023-12-23T22:01:18.867Z,100559.38
2023-12-23T22:04:08.082Z,100539.50
2023-12-23T22:06:55.936Z,100529.44
2023-12-23T22:09:44.130Z,100516.06
2023-12-23T22:12:32.073Z,100500.13
2023-12-23T22:15:19.934Z,100507.25
2023-12-23T22:18:08.038Z,100503.19
2023-12-23T22:20:57.285Z,100496.19
2023-12-23T22:23:45.200Z,100509.22
2023-12-23T22:26:33.067Z,100507.44
2023-12-23T22:29:20.955Z,100501.41
2023-12-23T22:32:09.061Z,100506.16
2023-12-23T22:34:56.969Z,100506.63
2023-12-23T22:37:46.158Z,100514.44
2023-12-23T22:40:33.997Z,100521.78
2023-12-23T22:43:22.072Z,100527.28
2023-12-23T22:46:09.985Z,100517.31
2023-12-23T22:48:57.987Z,100523.69
2023-12-23T22:51:46.195Z,100537.81
2023-12-23T22:54:35.375Z,100532.59
2023-12-23T22:57:23.273Z,100537.34
2023-12-23T23:00:21.914Z,100531.94
2023-12-23T23:03:10.197Z,100520.53
2023-12-23T23:05:58.500Z,100528.19
2023-12-23T23:08:46.418Z,100511.22
2023-12-23T23:11:35.655Z,100498.25
2023-12-23T23:14:23.537Z,100512.66
2023-12-23T23:17:11.441Z,100502.03
2023-12-23T23:19:59.394Z,100503.47
2023-12-23T23:22:47.362Z,100497.81
2023-12-23T23:25:35.186Z,100491.78
2023-12-23T23:28:24.452Z,100495.63
2023-12-23T23:31:13.664Z,100488.81
2023-12-23T23:34:01.599Z,100485.22
2023-12-23T23:36:49.455Z,100484.69
2023-12-23T23:39:37.617Z,100483.22
2023-12-23T23:42:25.587Z,100487.81
2023-12-23T23:45:15.027Z,100500.13
2023-12-23T23:48:02.928Z,100501.94
2023-12-23T23:50:50.850Z,100486.47
2023-12-23T23:53:38.683Z,100488.44
2023-12-23T23:56:26.750Z,100472.28
2023-12-23T23:59:14.622Z,100473.72
